createdAt,value
2023-03-26T00:01:14.025Z,100793.41
2023-03-26T00:03:41.505Z,100792.19
2023-03-26T00:06:15.993Z,100804.72
2023-03-26T00:08:43.732Z,100803.75
2023-03-26T00:11:11.924Z,100806.09
2023-03-26T00:13:39.181Z,100794.09
2023-03-26T00:16:06.361Z,100797.81
2023-03-26T00:18:34.894Z,100795.38
2023-03-26T00:21:05.061Z,100797.81
2023-03-26T00:23:33.899Z,100799.69
2023-03-26T00:26:00.856Z,100795.56
2023-03-26T00:28:27.295Z,100785.03
2023-03-26T00:31:05.156Z,100792.88
2023-03-26T00:33:32.136Z,100791.03
2023-03-26T00:36:03.195Z,100791.25
2023-03-26T00:38:31.013Z,100791.25
2023-03-26T00:41:05.877Z,100773.22
2023-03-26T00:43:36.181Z,100772.25
2023-03-26T00:46:03.083Z,100770.81
2023-03-26T00:48:42.231Z,100767.16
2023-03-26T00:51:15.218Z,100757.44
2023-03-26T00:53:42.527Z,100764.09
2023-03-26T00:56:10.084Z,100756.81
2023-03-26T00:58:37.213Z,100754.59
2023-03-26T01:01:08.567Z,100747.75
2023-03-26T01:03:38.611Z,100763.72
2023-03-26T01:06:14.057Z,100758.41
2023-03-26T01:09:04.282Z,100755.69
2023-03-26T01:11:33.710Z,100755.69
2023-03-26T01:14:01.558Z,100751.16
2023-03-26T01:16:39.253Z,100750.56
2023-03-26T01:19:16.526Z,100736.50
2023-03-26T01:21:43.970Z,100740.81
2023-03-26T01:24:10.541Z,100728.19
2023-03-26T01:26:52.715Z,100722.34
2023-03-26T01:29:29.301Z,100707.03
2023-03-26T01:32:09.537Z,100719.88
2023-03-26T01:35:06.086Z,100712.63
2023-03-26T01:37:52.393Z,100707.84
2023-03-26T01:40:50.432Z,100706.41
2023-03-26T01:43:47.477Z,100702.22
2023-03-26T01:46:16.106Z,100697.44
2023-03-26T01:48:44.891Z,100694.28
2023-03-26T01:51:13.301Z,100685.03
2023-03-26T01:53:46.818Z,100685.81
2023-03-26T01:56:35.439Z,100688.75
2023-03-26T01:59:13.710Z,100682.69
2023-03-26T02:01:54.713Z,100669.59
2023-03-26T02:04:27.458Z,100667.59
2023-03-26T02:07:05.599Z,100665.81
2023-03-26T02:09:39.857Z,100665.81
2023-03-26T02:12:07.020Z,100661.84
2023-03-26T02:14:34.312Z,100656.44
2023-03-26T02:17:00.754Z,100648.97
2023-03-26T02:19:27.387Z,100649.56
2023-03-26T02:21:59.655Z,100653.88
2023-03-26T02:24:25.997Z,100650.38
2023-03-26T02:26:52.318Z,100646.88
2023-03-26T02:29:20.448Z,100642.59
2023-03-26T02:31:48.615Z,100639.56
2023-03-26T02:34:16.162Z,100637.16
2023-03-26T02:36:45.639Z,100636.63
2023-03-26T02:39:14.252Z,100632.69
2023-03-26T02:41:40.924Z,100628.03
2023-03-26T02:44:07.445Z,100620.56
2023-03-26T02:46:33.960Z,100618.47
2023-03-26T02:49:00.568Z,100619.66
2023-03-26T02:51:27.360Z,100632.91
2023-03-26T02:53:54.754Z,100621.31
2023-03-26T02:56:21.594Z,100617.78
2023-03-26T02:58:48.385Z,100617.19
2023-03-26T03:01:18.305Z,100614.59
2023-03-26T03:03:47.482Z,100617.72
2023-03-26T03:06:17.032Z,100617.66
2023-03-26T03:08:46.108Z,100618.63
2023-03-26T03:11:18.994Z,100611.56
2023-03-26T03:13:46.080Z,100605.53
2023-03-26T03:16:12.575Z,100607.16
2023-03-26T03:18:39.607Z,100602.13
2023-03-26T03:21:06.254Z,100611.19
2023-03-26T03:23:32.824Z,100602.41
2023-03-26T03:25:59.445Z,100594.94
2023-03-26T03:28:26.531Z,100583.69
2023-03-26T03:30:53.215Z,100581.59
2023-03-26T03:33:20.700Z,100579.03
2023-03-26T03:35:49.474Z,100584.53
2023-03-26T03:38:19.236Z,100572.72
2023-03-26T03:40:45.778Z,100573.88
2023-03-26T03:43:12.189Z,100573.22
2023-03-26T03:45:38.604Z,100574.63
2023-03-26T03:48:05.418Z,100570.63
2023-03-26T03:50:34.316Z,100567.94
2023-03-26T03:53:02.052Z,100572.88
2023-03-26T03:55:30.118Z,100576.97
2023-03-26T03:57:58.495Z,100575.47
2023-03-26T04:00:24.933Z,100566.09
2023-03-26T04:02:54.235Z,100577.22
2023-03-26T04:05:21.430Z,100562.69
2023-03-26T04:07:47.872Z,100564.56
2023-03-26T04:10:15.291Z,100563.72
2023-03-26T04:12:41.685Z,100559.41
2023-03-26T04:15:08.413Z,100561.03
2023-03-26T04:17:42.201Z,100552.94
2023-03-26T04:20:14.738Z,100547.56
2023-03-26T04:22:44.099Z,100544.88
2023-03-26T04:25:12.546Z,100535.16
2023-03-26T04:27:41.868Z,100534.09
2023-03-26T04:30:12.540Z,100527.66
2023-03-26T04:32:40.344Z,100532.00
2023-03-26T04:35:07.046Z,100529.53
2023-03-26T04:37:36.570Z,100528.47
2023-03-26T04:40:08.450Z,100518.53
2023-03-26T04:42:37.636Z,100515.00
2023-03-26T04:45:07.380Z,100509.03
2023-03-26T04:47:37.036Z,100505.50
2023-03-26T04:50:05.236Z,100496.59
2023-03-26T04:52:31.582Z,100497.41
2023-03-26T04:54:58.161Z,100489.34
2023-03-26T04:57:32.530Z,100488.50
2023-03-26T04:59:58.927Z,100489.34
2023-03-26T05:02:25.994Z,100485.81
2023-03-26T05:04:52.480Z,100479.03
2023-03-26T05:07:22.430Z,100472.81
2023-03-26T05:09:48.852Z,100471.97
2023-03-26T05:12:16.461Z,100472.81
2023-03-26T05:14:42.796Z,100465.53
2023-03-26T05:17:14.948Z,100472.81
2023-03-26T05:19:41.721Z,100467.19
2023-03-26T05:22:08.146Z,100460.72
2023-03-26T05:24:34.525Z,100462.38
2023-03-26T05:27:01.133Z,100462.13
2023-03-26T05:29:27.536Z,100452.28
2023-03-26T05:31:53.861Z,100449.00
2023-03-26T05:34:24.114Z,100448.91
2023-03-26T05:36:50.623Z,100448.66
2023-03-26T05:39:17.263Z,100448.09
2023-03-26T05:41:43.661Z,100451.34
2023-03-26T05:44:10.211Z,100445.97
2023-03-26T05:46:36.625Z,100433.09
2023-03-26T05:49:03.371Z,100437.41
2023-03-26T05:51:29.804Z,100441.75
2023-03-26T05:53:56.118Z,100434.72
2023-03-26T05:56:22.537Z,100437.41
2023-03-26T05:58:50.091Z,100435.31
2023-03-26T06:01:18.087Z,100431.34
2023-03-26T06:03:45.692Z,100428.84
2023-03-26T06:06:15.480Z,100427.56
2023-03-26T06:09:01.577Z,100424.66
2023-03-26T06:11:30.409Z,100418.78
2023-03-26T06:13:56.772Z,100411.28
2023-03-26T06:16:27.173Z,100405.41
2023-03-26T06:18:56.682Z,100406.00
2023-03-26T06:21:24.215Z,100399.78
2023-03-26T06:23:51.682Z,100396.50
2023-03-26T06:26:18.132Z,100400.84
2023-03-26T06:28:44.642Z,100389.34
2023-03-26T06:31:11.841Z,100389.91
2023-03-26T06:33:38.559Z,100389.44
2023-03-26T06:36:05.674Z,100389.56
2023-03-26T06:38:32.139Z,100384.28
2023-03-26T06:41:06.047Z,100385.41
2023-03-26T06:43:36.178Z,100388.00
2023-03-26T06:46:03.492Z,100387.25
2023-03-26T06:48:30.131Z,100387.25
2023-03-26T06:50:57.592Z,100393.03
2023-03-26T06:53:23.988Z,100387.88
2023-03-26T06:55:50.405Z,100391.38
2023-03-26T06:58:17.036Z,100385.50
2023-03-26T07:00:43.472Z,100381.75
2023-03-26T07:03:11.321Z,100384.13
2023-03-26T07:05:38.812Z,100381.41
2023-03-26T07:08:05.783Z,100382.50
2023-03-26T07:10:32.791Z,100378.13
2023-03-26T07:12:59.170Z,100384.38
2023-03-26T07:15:26.889Z,100378.50
2023-03-26T07:17:53.252Z,100384.22
2023-03-26T07:20:19.755Z,100380.47
2023-03-26T07:22:46.388Z,100385.03
2023-03-26T07:25:14.245Z,100384.81
2023-03-26T07:27:57.800Z,100386.53
2023-03-26T07:30:45.777Z,100381.94
2023-03-26T07:33:24.336Z,100379.94
2023-03-26T07:36:07.974Z,100370.88
2023-03-26T07:38:47.165Z,100373.31
2023-03-26T07:41:48.639Z,100371.88
2023-03-26T07:44:18.020Z,100377.44
2023-03-26T07:46:47.803Z,100376.47
2023-03-26T07:49:14.911Z,100373.38
2023-03-26T07:51:41.580Z,100370.19
2023-03-26T07:54:10.752Z,100374.28
2023-03-26T07:56:42.797Z,100368.56
2023-03-26T07:59:09.161Z,100366.66
2023-03-26T08:02:02.776Z,100365.88
2023-03-26T08:04:47.788Z,100373.47
2023-03-26T08:07:37.617Z,100372.06
2023-03-26T08:10:15.872Z,100369.94
2023-03-26T08:12:48.165Z,100364.78
2023-03-26T08:15:42.047Z,100370.25
2023-03-26T08:18:28.349Z,100364.84
2023-03-26T08:21:01.317Z,100362.41
2023-03-26T08:23:35.706Z,100364.28
2023-03-26T08:26:32.206Z,100365.44
2023-03-26T08:29:10.402Z,100366.16
2023-03-26T08:31:41.648Z,100362.56
2023-03-26T08:34:12.359Z,100366.16
2023-03-26T08:36:39.417Z,100358.94
2023-03-26T08:39:06.162Z,100362.03
2023-03-26T08:41:44.602Z,100363.84
2023-03-26T08:45:08.211Z,100365.63
2023-03-26T08:47:55.461Z,100361.19
2023-03-26T08:50:30.831Z,100370.34
2023-03-26T08:53:36.422Z,100374.09
2023-03-26T08:56:19.366Z,100371.66
2023-03-26T08:59:19.619Z,100367.31
2023-03-26T09:02:10.698Z,100365.22
2023-03-26T09:04:52.104Z,100362.78
2023-03-26T09:07:34.906Z,100374.84
2023-03-26T09:10:25.710Z,100369.69
2023-03-26T09:13:28.223Z,100379.63
2023-03-26T09:16:38.287Z,100375.56
2023-03-26T09:19:35.509Z,100368.75
2023-03-26T09:22:42.357Z,100382.94
2023-03-26T09:25:20.996Z,100371.06
2023-03-26T09:28:28.233Z,100371.72
2023-03-26T09:31:39.663Z,100376.81
2023-03-26T09:34:30.322Z,100367.41
2023-03-26T09:37:13.354Z,100376.53
2023-03-26T09:40:01.555Z,100365.53
2023-03-26T09:42:46.206Z,100376.22
2023-03-26T09:45:31.870Z,100373.41
2023-03-26T09:48:18.942Z,100376.03
2023-03-26T09:51:00.741Z,100379.63
2023-03-26T09:53:51.444Z,100379.06
2023-03-26T09:56:42.732Z,100385.28
2023-03-26T09:59:33.902Z,100381.75
2023-03-26T10:02:46.485Z,100383.63
2023-03-26T10:05:42.462Z,100388.72
2023-03-26T10:08:33.120Z,100388.13
2023-03-26T10:11:10.063Z,100393.28
2023-03-26T10:13:58.209Z,100396.56
2023-03-26T10:16:38.790Z,100392.06
2023-03-26T10:19:26.999Z,100399.59
2023-03-26T10:22:24.367Z,100400.16
2023-03-26T10:25:28.614Z,100397.81
2023-03-26T10:28:14.417Z,100402.88
2023-03-26T10:30:47.220Z,100406.78
2023-03-26T10:33:34.094Z,100402.03
2023-03-26T10:36:09.724Z,100407.44
2023-03-26T10:38:58.386Z,100416.09
2023-03-26T10:41:38.042Z,100411.34
2023-03-26T10:44:21.902Z,100415.06
2023-03-26T10:47:08.323Z,100415.06
2023-03-26T10:50:02.131Z,100414.25
2023-03-26T10:52:38.975Z,100420.84
2023-03-26T10:55:18.940Z,100423.78
2023-03-26T10:57:53.752Z,100415.56
2023-03-26T11:00:26.065Z,100418.81
2023-03-26T11:03:17.320Z,100429.00
2023-03-26T11:05:58.912Z,100423.97
2023-03-26T11:08:49.568Z,100422.09
2023-03-26T11:11:42.200Z,100431.81
2023-03-26T11:14:33.799Z,100427.59
2023-03-26T11:17:00.973Z,100433.06
2023-03-26T11:19:40.904Z,100435.47
2023-03-26T11:22:31.698Z,100435.00
2023-03-26T11:25:29.065Z,100431.44
2023-03-26T11:28:17.181Z,100440.28
2023-03-26T11:31:02.263Z,100445.22
2023-03-26T11:33:45.363Z,100454.38
2023-03-26T11:36:17.594Z,100452.78
2023-03-26T11:38:47.444Z,100454.28
2023-03-26T11:41:24.337Z,100454.13
2023-03-26T11:43:56.310Z,100465.47
2023-03-26T11:46:24.870Z,100464.53
2023-03-26T11:49:03.355Z,100462.00
2023-03-26T11:51:33.183Z,100460.69
2023-03-26T11:54:05.011Z,100456.72
2023-03-26T11:56:41.816Z,100459.97
2023-03-26T11:59:49.491Z,100471.59
2023-03-26T12:02:38.044Z,100465.03
2023-03-26T12:05:40.903Z,100467.72
2023-03-26T12:08:20.019Z,100469.25
2023-03-26T12:10:58.277Z,100473.44
2023-03-26T12:13:39.925Z,100475.19
2023-03-26T12:16:18.948Z,100470.47
2023-03-26T12:18:47.457Z,100470.34
2023-03-26T12:21:15.778Z,100474.53
2023-03-26T12:23:57.053Z,100477.75
2023-03-26T12:26:34.715Z,100478.78
2023-03-26T12:29:16.458Z,100470.44
2023-03-26T12:31:51.789Z,100477.19
2023-03-26T12:34:24.268Z,100483.25
2023-03-26T12:36:56.662Z,100485.22
2023-03-26T12:40:07.011Z,100495.06
2023-03-26T12:44:44.049Z,100495.06
2023-03-26T12:45:16.440Z,100493.81
2023-03-26T12:47:57.106Z,100501.09
2023-03-26T12:50:56.972Z,100495.06
2023-03-26T12:53:26.610Z,100507.34
2023-03-26T12:56:19.860Z,100506.78
2023-03-26T12:59:12.164Z,100514.53
2023-03-26T13:02:16.126Z,100507.66
2023-03-26T13:04:49.226Z,100518.81
2023-03-26T13:07:30.477Z,100517.91
2023-03-26T13:10:24.786Z,100521.09
2023-03-26T13:13:08.193Z,100518.38
2023-03-26T13:15:41.062Z,100525.19
2023-03-26T13:18:44.681Z,100524.84
2023-03-26T13:21:13.975Z,100533.69
2023-03-26T13:23:56.993Z,100533.13
2023-03-26T13:26:46.351Z,100537.88
2023-03-26T13:29:46.786Z,100537.47
2023-03-26T13:32:33.005Z,100542.00
2023-03-26T13:35:20.948Z,100552.66
2023-03-26T13:38:06.039Z,100542.56
2023-03-26T13:40:39.468Z,100545.94
2023-03-26T13:43:43.350Z,100551.41
2023-03-26T13:46:32.096Z,100547.47
2023-03-26T13:49:13.050Z,100550.91
2023-03-26T13:51:44.744Z,100552.63
2023-03-26T13:54:23.367Z,100552.22
2023-03-26T13:56:56.042Z,100558.91
2023-03-26T13:59:58.764Z,100560.97
2023-03-26T14:02:38.830Z,100557.03
2023-03-26T14:05:23.360Z,100563.81
2023-03-26T14:07:57.365Z,100570.59
2023-03-26T14:10:27.936Z,100569.59
2023-03-26T14:12:59.856Z,100577.63
2023-03-26T14:15:26.213Z,100577.41
2023-03-26T14:18:07.125Z,100585.81
2023-03-26T14:20:51.427Z,100589.38
2023-03-26T14:23:29.854Z,100587.81
2023-03-26T14:26:33.988Z,100593.94
2023-03-26T14:29:12.621Z,100593.00
2023-03-26T14:31:51.585Z,100596.06
2023-03-26T14:34:30.936Z,100600.03
2023-03-26T14:37:27.954Z,100605.59
2023-03-26T14:40:00.599Z,100611.41
2023-03-26T14:42:48.735Z,100618.63
2023-03-26T14:45:29.134Z,100624.66
2023-03-26T14:48:22.888Z,100628.91
2023-03-26T14:51:08.890Z,100633.94
2023-03-26T14:53:40.273Z,100635.53
2023-03-26T14:56:32.132Z,100651.75
2023-03-26T14:59:17.198Z,100654.09
2023-03-26T15:02:31.966Z,100661.72
2023-03-26T15:05:04.050Z,100663.38
2023-03-26T15:07:40.930Z,100664.78
2023-03-26T15:10:26.201Z,100670.88
2023-03-26T15:13:26.482Z,100678.75
2023-03-26T15:16:26.225Z,100679.19
2023-03-26T15:18:57.319Z,100682.72
2023-03-26T15:22:10.081Z,100681.06
2023-03-26T15:25:06.759Z,100691.13
2023-03-26T15:27:39.086Z,100691.28
2023-03-26T15:30:33.376Z,100692.44
2023-03-26T15:33:34.902Z,100699.59
2023-03-26T15:36:35.436Z,100704.53
2023-03-26T15:39:44.227Z,100708.78
2023-03-26T15:42:47.935Z,100713.13
2023-03-26T15:45:33.182Z,100720.03
2023-03-26T15:48:12.314Z,100730.59
2023-03-26T15:51:08.883Z,100737.00
2023-03-26T15:53:56.722Z,100743.28
2023-03-26T15:56:54.841Z,100753.97
2023-03-26T15:59:37.115Z,100758.19
2023-03-26T16:02:07.367Z,100758.84
2023-03-26T16:04:53.983Z,100783.59
2023-03-26T16:07:29.413Z,100783.84
2023-03-26T16:10:16.309Z,100794.31
2023-03-26T16:13:22.731Z,100787.06
2023-03-26T16:16:04.244Z,100792.56
2023-03-26T16:18:41.141Z,100799.75
2023-03-26T16:21:36.589Z,100805.38
2023-03-26T16:24:03.080Z,100803.50
2023-03-26T16:26:54.939Z,100809.59
2023-03-26T16:29:24.660Z,100808.81
2023-03-26T16:32:09.616Z,100828.00
2023-03-26T16:34:48.075Z,100823.28
2023-03-26T16:37:39.968Z,100828.53
2023-03-26T16:40:27.824Z,100842.00
2023-03-26T16:43:09.393Z,100840.56
2023-03-26T16:45:58.854Z,100852.59
2023-03-26T16:48:56.344Z,100852.00
2023-03-26T16:51:50.674Z,100867.56
2023-03-26T16:54:23.613Z,100876.69
2023-03-26T16:57:01.194Z,100874.97
2023-03-26T17:00:05.457Z,100890.31
2023-03-26T17:03:13.061Z,100893.28
2023-03-26T17:05:56.472Z,100899.19
2023-03-26T17:08:36.203Z,100907.56
2023-03-26T17:11:27.140Z,100911.97
2023-03-26T17:14:07.803Z,100918.41
2023-03-26T17:16:35.921Z,100921.19
2023-03-26T17:19:22.392Z,100923.94
2023-03-26T17:22:36.957Z,100934.97
2023-03-26T17:25:31.348Z,100939.75
2023-03-26T17:28:16.153Z,100943.91
2023-03-26T17:31:07.602Z,100953.47
2023-03-26T17:33:36.847Z,100962.56
2023-03-26T17:36:12.589Z,100969.22
2023-03-26T17:38:39.048Z,100985.59
2023-03-26T17:41:14.776Z,100984.34
2023-03-26T17:43:46.820Z,100988.28
2023-03-26T17:46:41.877Z,100985.81
2023-03-26T17:49:26.944Z,100998.25
2023-03-26T17:52:25.744Z,101002.00
2023-03-26T17:54:55.735Z,101008.88
2023-03-26T17:57:42.769Z,100999.56
2023-03-26T18:00:19.440Z,101014.03
2023-03-26T18:03:00.396Z,101019.22
2023-03-26T18:05:29.720Z,101024.84
2023-03-26T18:08:23.734Z,101033.34
2023-03-26T18:10:59.105Z,101043.50
2023-03-26T18:13:37.568Z,101046.56
2023-03-26T18:16:26.078Z,101057.94
2023-03-26T18:19:00.586Z,101058.75
2023-03-26T18:21:39.185Z,101058.34
2023-03-26T18:24:08.667Z,101063.34
2023-03-26T18:26:42.519Z,101069.72
2023-03-26T18:29:19.782Z,101081.94
2023-03-26T18:31:49.271Z,101084.00
2023-03-26T18:34:20.367Z,101091.66
2023-03-26T18:36:57.501Z,101088.97
2023-03-26T18:39:23.897Z,101104.69
2023-03-26T18:41:50.321Z,101104.50
2023-03-26T18:44:18.881Z,101110.88
2023-03-26T18:46:46.376Z,101118.34
2023-03-26T18:49:15.360Z,101123.72
2023-03-26T18:51:56.031Z,101131.97
2023-03-26T18:54:24.125Z,101146.22
2023-03-26T18:56:52.105Z,101148.69
2023-03-26T18:59:35.270Z,101155.88
2023-03-26T19:02:05.709Z,101164.53
2023-03-26T19:04:33.910Z,101168.25
2023-03-26T19:07:01.551Z,101172.34
2023-03-26T19:09:32.460Z,101171.69
2023-03-26T19:12:09.178Z,101181.38
2023-03-26T19:14:54.418Z,101173.53
2023-03-26T19:17:22.094Z,101178.72
2023-03-26T19:19:50.608Z,101184.97
2023-03-26T19:22:18.119Z,101185.19
2023-03-26T19:24:44.885Z,101190.16
2023-03-26T19:27:11.982Z,101200.50
2023-03-26T19:29:38.476Z,101203.75
2023-03-26T19:32:15.703Z,101207.03
2023-03-26T19:34:44.759Z,101213.38
2023-03-26T19:37:18.745Z,101217.03
2023-03-26T19:39:49.084Z,101217.84
2023-03-26T19:42:42.995Z,101230.81
2023-03-26T19:45:18.103Z,101235.13
2023-03-26T19:47:50.109Z,101238.81
2023-03-26T19:50:29.821Z,101242.28
2023-03-26T19:53:16.061Z,101242.91
2023-03-26T19:55:53.444Z,101248.44
2023-03-26T19:58:19.878Z,101257.53
2023-03-26T20:00:46.248Z,101252.56
2023-03-26T20:03:13.079Z,101259.97
2023-03-26T20:05:39.613Z,101268.22
2023-03-26T20:08:14.602Z,101266.97
2023-03-26T20:10:44.106Z,101272.59
2023-03-26T20:13:17.248Z,101285.59
2023-03-26T20:16:05.419Z,101276.94
2023-03-26T20:18:34.693Z,101281.47
2023-03-26T20:21:01.158Z,101291.81
2023-03-26T20:23:28.846Z,101286.44
2023-03-26T20:25:55.613Z,101296.78
2023-03-26T20:28:22.272Z,101307.13
2023-03-26T20:30:50.708Z,101307.13
2023-03-26T20:33:25.586Z,101296.78
2023-03-26T20:35:56.933Z,101308.16
2023-03-26T20:38:38.995Z,101310.41
2023-03-26T20:41:12.383Z,101318.41
2023-03-26T20:43:38.872Z,101323.53
2023-03-26T20:46:05.519Z,101330.91
2023-03-26T20:48:36.110Z,101335.03
2023-03-26T20:51:03.031Z,101351.25
2023-03-26T20:53:30.414Z,101351.38
2023-03-26T20:55:57.012Z,101353.78
2023-03-26T20:58:30.733Z,101362.41
2023-03-26T21:01:00.637Z,101372.69
2023-03-26T21:03:30.266Z,101367.44
2023-03-26T21:06:01.041Z,101365.53
2023-03-26T21:08:33.993Z,101368.56
2023-03-26T21:11:04.758Z,101382.38
2023-03-26T21:13:53.868Z,101375.28
2023-03-26T21:16:20.769Z,101379.28
2023-03-26T21:18:47.466Z,101382.16
2023-03-26T21:21:35.436Z,101383.72
2023-03-26T21:24:33.834Z,101389.53
2023-03-26T21:27:26.437Z,101399.34
2023-03-26T21:29:55.022Z,101397.03
2023-03-26T21:32:22.683Z,101392.06
2023-03-26T21:34:58.467Z,101393.81
2023-03-26T21:37:25.596Z,101405.91
2023-03-26T21:39:52.286Z,101411.63
2023-03-26T21:42:18.940Z,101414.31
2023-03-26T21:44:45.454Z,101412.81
2023-03-26T21:47:12.233Z,101427.63
2023-03-26T21:49:49.588Z,101432.88
2023-03-26T21:52:16.371Z,101434.41
2023-03-26T21:54:48.357Z,101437.75
2023-03-26T21:57:43.735Z,101443.28
2023-03-26T22:00:18.095Z,101448.38
2023-03-26T22:03:23.616Z,101455.50
2023-03-26T22:06:15.223Z,101459.28
2023-03-26T22:08:42.647Z,101460.22
2023-03-26T22:11:12.194Z,101472.94
2023-03-26T22:13:39.012Z,101469.63
2023-03-26T22:16:07.163Z,101474.69
2023-03-26T22:18:35.639Z,101474.78
2023-03-26T22:21:02.658Z,101484.28
2023-03-26T22:23:36.176Z,101486.59
2023-03-26T22:26:04.174Z,101488.06
2023-03-26T22:28:30.885Z,101496.38
2023-03-26T22:30:58.199Z,101490.66
2023-03-26T22:33:25.071Z,101494.00
2023-03-26T22:35:52.195Z,101493.31
2023-03-26T22:38:19.115Z,101496.78
2023-03-26T22:40:45.528Z,101509.44
2023-03-26T22:43:12.161Z,101508.41
2023-03-26T22:45:38.573Z,101513.25
2023-03-26T22:48:05.173Z,101523.41
2023-03-26T22:50:32.448Z,101520.78
2023-03-26T22:52:58.948Z,101527.72
2023-03-26T22:55:28.738Z,101528.63
2023-03-26T22:57:55.740Z,101531.94
2023-03-26T23:00:22.281Z,101536.47
2023-03-26T23:02:48.874Z,101540.50
2023-03-26T23:05:18.749Z,101545.00
2023-03-26T23:07:46.035Z,101548.53
2023-03-26T23:10:13.280Z,101551.69
2023-03-26T23:12:41.500Z,101552.44
2023-03-26T23:15:09.754Z,101563.91
2023-03-26T23:17:37.593Z,101567.34
2023-03-26T23:20:12.612Z,101561.91
2023-03-26T23:22:39.069Z,101572.44
2023-03-26T23:25:06.300Z,101575.13
2023-03-26T23:27:33.105Z,101580.47
2023-03-26T23:29:59.447Z,101585.31
2023-03-26T23:32:25.963Z,101579.22
2023-03-26T23:34:52.905Z,101592.88
2023-03-26T23:37:23.106Z,101594.84
2023-03-26T23:39:50.705Z,101599.16
2023-03-26T23:42:17.253Z,101607.41
2023-03-26T23:44:56.793Z,101609.44
2023-03-26T23:47:23.331Z,101610.59
2023-03-26T23:49:50.025Z,101617.16
2023-03-26T23:52:16.613Z,101624.84
2023-03-26T23:54:43.071Z,101627.72
2023-03-26T23:57:10.458Z,101628.94
2023-03-26T23:59:36.921Z,101637.25
